Fremont, NE

11:25 AM CST on December 03, 2016 (GMT -0600)
Fremont Municipal

Weather History for KFET - March, 2014

Change the Weather History Date:

Sunday, March 23, 2014

  Actual Average Record
Temperature  
Mean Temperature 24 °F -  
Max Temperature 39 °F 54 °F 82 °F (1997)
Min Temperature 10 °F 29 °F 5 °F (1965)
Degree Days  
Heating Degree Days 41    
Moisture  
Dew Point 11 °F    
Average Humidity 55    
Maximum Humidity 85    
Minimum Humidity 33    
Precipitation  
Precipitation 0.00 in - - ()
Sea Level Pressure  
Sea Level Pressure 30.42 in    
Wind  
Wind Speed 5 mph (SW)    
Max Wind Speed 13 mph    
Max Gust Speed -    
Visibility 10 miles    
Events      
Averages and records for this station are not official NWS values.
T = Trace of Precipitation, MM = Missing Value Source: NWS Daily Summary

Daily Weather History Graph

Daily Weather History Graph

Search for Another Location

Airport or City:

Trip Planner

Search our weather history database for the weather conditions in past years. The results will help you decide how hot, cold, wet, or windy it might be!

Date:

Astronomy

Mar. 23, 2014 Rise Set
Actual Time 7:24 AM CDT 7:41 PM CDT
Civil Twilight 6:56 AM CDT 8:09 PM CDT
Nautical Twilight 6:24 AM CDT 8:41 PM CDT
Astronomical Twilight 5:51 AM CDT 9:15 PM CDT
Moon 2:02 AM CDT (3/23) 12:03 PM CDT (3/23)
Length of Visible Light 13h 12m
Length of Day
12h 17m
Waning Gibbous, 54% of the Moon is Illuminated
Mar 23
Waning Gibbous
Mar 23
Last Quarter
Mar 30
New
Apr 7
First Quarter
Apr 15
Full

Hourly Weather History & Observations

Time (CDT) Temp. Windchill Dew Point Humidity Pressure Visibility Wind Dir Wind Speed Gust Speed Precip Events Conditions
12:15 AM 20.8 °F 13.2 °F 9.7 °F 62% 30.52 in 10.0 mi NW 5.8 mph - N/A   Clear
12:35 AM 20.3 °F 12.5 °F 9.9 °F 64% 30.53 in 10.0 mi NW 5.8 mph - N/A   Clear
12:55 AM 19.0 °F 12.3 °F 9.9 °F 67% 30.53 in 10.0 mi WNW 4.6 mph - N/A   Clear
1:15 AM 16.7 °F 9.6 °F 9.3 °F 73% 30.53 in 10.0 mi WNW 4.6 mph - N/A   Clear
1:35 AM 15.4 °F 8.1 °F 9.1 °F 76% 30.53 in 10.0 mi WNW 4.6 mph - N/A   Clear
1:55 AM 15.3 °F 7.9 °F 9.1 °F 77% 30.54 in 10.0 mi WNW 4.6 mph - N/A   Clear
2:15 AM 14.9 °F 9.2 °F 9.1 °F 78% 30.54 in 10.0 mi WNW 3.5 mph - N/A   Clear
2:35 AM 15.8 °F - 9.1 °F 75% 30.53 in 10.0 mi Calm Calm - N/A   Clear
2:55 AM 15.3 °F - 9.0 °F 76% 30.53 in 10.0 mi Calm Calm - N/A   Clear
3:15 AM 14.9 °F - 8.4 °F 76% 30.53 in 10.0 mi Calm Calm - N/A   Clear
3:35 AM 13.6 °F 7.7 °F 7.9 °F 78% 30.52 in 10.0 mi WNW 3.5 mph - N/A   Clear
3:55 AM 13.1 °F 5.4 °F 7.7 °F 79% 30.52 in 10.0 mi WNW 4.6 mph - N/A   Clear
4:15 AM 13.1 °F 7.1 °F 7.5 °F 78% 30.52 in 10.0 mi WNW 3.5 mph - N/A   Clear
4:35 AM 12.6 °F 6.5 °F 7.3 °F 80% 30.52 in 10.0 mi WNW 3.5 mph - N/A   Clear
4:55 AM 12.2 °F 6.1 °F 7.2 °F 80% 30.52 in 10.0 mi West 3.5 mph - N/A   Clear
5:15 AM 12.0 °F 5.9 °F 7.0 °F 80% 30.52 in 10.0 mi WNW 3.5 mph - N/A   Clear
5:35 AM 12.7 °F 6.7 °F 7.5 °F 80% 30.52 in 10.0 mi WNW 3.5 mph - N/A   Clear
5:55 AM 12.2 °F 6.1 °F 7.2 °F 80% 30.52 in 10.0 mi West 3.5 mph - N/A   Clear
6:15 AM 11.3 °F 3.3 °F 6.8 °F 82% 30.52 in 10.0 mi West 4.6 mph - N/A   Clear
6:35 AM 10.8 °F 1.2 °F 6.4 °F 83% 30.53 in 10.0 mi West 5.8 mph - N/A   Clear
6:55 AM 11.1 °F 3.1 °F 6.8 °F 83% 30.53 in 10.0 mi West 4.6 mph - N/A   Clear
7:15 AM 10.4 °F 2.2 °F 6.6 °F 85% 30.52 in 10.0 mi West 4.6 mph - N/A   Clear
7:35 AM 10.0 °F - 5.9 °F 83% 30.53 in 10.0 mi Calm Calm - N/A   Clear
7:55 AM 11.1 °F 4.9 °F 6.8 °F 83% 30.53 in 10.0 mi WNW 3.5 mph - N/A   Clear
8:15 AM 12.9 °F 6.9 °F 8.4 °F 82% 30.52 in 10.0 mi WNW 3.5 mph - N/A   Clear
8:35 AM 15.4 °F 8.1 °F 10.2 °F 80% 30.52 in 10.0 mi WNW 4.6 mph - N/A   Clear
8:55 AM 18.3 °F 13.1 °F 11.7 °F 75% 30.53 in 10.0 mi West 3.5 mph - N/A   Clear
9:15 AM 20.3 °F 13.8 °F 11.7 °F 69% 30.53 in 10.0 mi West 4.6 mph - N/A   Clear
9:35 AM 21.9 °F - 12.2 °F 66% 30.53 in 10.0 mi Calm Calm - N/A   Clear
9:55 AM 23.5 °F - 13.1 °F 64% 30.53 in 10.0 mi Calm Calm - N/A   Clear
10:15 AM 26.1 °F - 13.3 °F 59% 30.52 in 10.0 mi Calm Calm - N/A   Clear
10:35 AM 27.0 °F - 11.8 °F 53% 30.51 in 10.0 mi Calm Calm - N/A   Clear
10:55 AM 28.2 °F - 10.9 °F 48% 30.51 in 10.0 mi Calm Calm - N/A   Clear
11:15 AM 29.1 °F - 10.6 °F 46% 30.51 in 10.0 mi Calm Calm - N/A   Clear
11:35 AM 29.7 °F 22.0 °F 10.0 °F 44% 30.50 in 10.0 mi SSE 8.1 mph - N/A   Clear
11:55 AM 30.7 °F 27.3 °F 9.5 °F 41% 30.49 in 10.0 mi West 3.5 mph - N/A   Clear
12:15 PM 31.8 °F 24.6 °F 10.2 °F 41% 30.49 in 10.0 mi SSW 8.1 mph - N/A   Clear
12:35 PM 31.6 °F - 9.7 °F 40% 30.48 in 10.0 mi Calm Calm - N/A   Clear
12:55 PM 32.0 °F 28.7 °F 9.5 °F 39% 30.47 in 10.0 mi SSW 3.5 mph - N/A   Clear
1:15 PM 32.7 °F 27.3 °F 10.2 °F 39% 30.45 in 10.0 mi SSW 5.8 mph - N/A   Clear
1:35 PM 34.0 °F - 10.6 °F 38% 30.44 in 10.0 mi Calm Calm - N/A   Clear
1:55 PM 33.8 °F 30.8 °F 10.8 °F 38% 30.43 in 10.0 mi SE 3.5 mph - N/A   Clear
2:15 PM 34.7 °F 31.8 °F 10.9 °F 37% 30.40 in 10.0 mi WSW 3.5 mph - N/A   Clear
2:35 PM 36.1 °F 31.4 °F 11.7 °F 36% 30.39 in 10.0 mi SSW 5.8 mph - N/A   Clear
2:55 PM 36.7 °F 34.1 °F 11.8 °F 36% 30.38 in 10.0 mi SSE 3.5 mph - N/A   Clear
3:15 PM 36.7 °F 30.5 °F 11.5 °F 35% 30.36 in 10.0 mi SSW 8.1 mph - N/A   Clear
3:35 PM 37.0 °F 34.5 °F 11.7 °F 35% 30.36 in 10.0 mi SW 3.5 mph - N/A   Clear
3:55 PM 37.8 °F 34.2 °F 11.7 °F 34% 30.34 in 10.0 mi South 4.6 mph - N/A   Clear
4:15 PM 37.9 °F 34.4 °F 11.8 °F 34% 30.33 in 10.0 mi SW 4.6 mph - N/A   Clear
4:35 PM 38.5 °F 32.7 °F 12.0 °F 34% 30.31 in 10.0 mi South 8.1 mph - N/A   Clear
4:55 PM 38.8 °F 33.2 °F 12.2 °F 34% 30.31 in 10.0 mi SW 8.1 mph - N/A   Clear
5:15 PM 38.1 °F 32.3 °F 11.8 °F 34% 30.30 in 10.0 mi South 8.1 mph - N/A   Clear
5:35 PM 38.8 °F 33.2 °F 11.8 °F 33% 30.29 in 10.0 mi South 8.1 mph - N/A   Clear
5:55 PM 38.5 °F 32.1 °F 12.0 °F 34% 30.28 in 10.0 mi SSE 9.2 mph - N/A   Clear
6:15 PM 38.7 °F 32.9 °F 12.0 °F 34% 30.28 in 10.0 mi South 8.1 mph - N/A   Scattered Clouds
6:35 PM 37.6 °F 31.0 °F 11.8 °F 35% 30.27 in 10.0 mi South 9.2 mph - N/A   Scattered Clouds
6:55 PM 38.3 °F 31.9 °F 12.2 °F 34% 30.27 in 10.0 mi South 9.2 mph - N/A   Mostly Cloudy
7:15 PM 37.6 °F 33.1 °F 12.2 °F 35% 30.27 in 10.0 mi SE 5.8 mph - N/A   Overcast
7:35 PM 37.4 °F 30.8 °F 12.6 °F 36% 30.26 in 10.0 mi SE 9.2 mph - N/A   Overcast
7:55 PM 36.9 °F 29.6 °F 13.1 °F 38% 30.25 in 10.0 mi SE 10.4 mph - N/A   Overcast
8:15 PM 36.9 °F 31.4 °F 13.6 °F 39% 30.26 in 10.0 mi SE 6.9 mph - N/A   Overcast
8:35 PM 36.5 °F 30.3 °F 13.6 °F 39% 30.26 in 10.0 mi SE 8.1 mph - N/A   Overcast
8:55 PM 36.1 °F 29.9 °F 14.0 °F 40% 30.27 in 10.0 mi SE 8.1 mph - N/A   Overcast
9:15 PM 36.1 °F 30.6 °F 14.2 °F 41% 30.28 in 10.0 mi SE 6.9 mph - N/A   Overcast
9:35 PM 36.0 °F 28.0 °F 13.8 °F 40% 30.28 in 10.0 mi ESE 11.5 mph - N/A   Overcast
9:55 PM 35.6 °F 29.2 °F 13.8 °F 41% 30.28 in 10.0 mi ESE 8.1 mph - N/A   Overcast
10:15 PM 35.2 °F 28.8 °F 14.2 °F 42% 30.28 in 10.0 mi ESE 8.1 mph - N/A   Overcast
10:35 PM 35.2 °F 28.8 °F 14.4 °F 42% 30.28 in 10.0 mi SE 8.1 mph - N/A   Overcast
10:55 PM 35.1 °F 26.4 °F 14.4 °F 43% 30.28 in 10.0 mi SE 12.7 mph - N/A   Overcast
11:15 PM 34.7 °F 26.4 °F 14.0 °F 43% 30.28 in 10.0 mi SE 11.5 mph - N/A   Overcast
11:35 PM 34.7 °F 28.1 °F 14.2 °F 43% 30.28 in 10.0 mi SE 8.1 mph - N/A   Overcast
11:55 PM 34.3 °F 25.9 °F 13.6 °F 43% 30.28 in 10.0 mi SE 11.5 mph - N/A   Overcast